Terminal Aerodrome Forecast
Issued by NWS Jacksonville, FL

Home | Current Version | Previous Version | Text Only | Print | Product List | Glossary On
Versions: 1 2 3 4 5 6 7 8 9 10 11 12 13 14 15 16 17 18
590
FTUS42 KJAX 291728
TAFJAX
TAF
KJAX 291728Z 2918/3018 25008KT P6SM VCTS BKN035CB
     FM292300 21003KT P6SM SCT030 SCT250
     FM300900 29004KT 6SM BR SCT250
     FM301400 34005KT P6SM FEW030 SCT250=

USA.gov is the U.S. government's official web portal to all federal, state and local government web resources and services.